»·PEaware :: N828SP KCMA-KVNY

N828SP :: KCMA-KVNY

FLIGHT INFORMATION

Flight Status: Arrived
Operator: Privately registered:
United States
More flights under this callsign
Pilot: Danny D. (17146)
Aircraft: CESSNA 172 SKYHAWK
(C172)
More flights by this aircraft type
Origin: KCMA Camarillo
United States
Destination: KVNY Van Nuys
United States
More flights between these airports :: More routes between these airports
Route: +VNY
File this flight plan on PilotEdge
Remarks:
Altitude:
(Current/Filed)
0ft
Speed:
(Current/Filed)
0kts
Departed: 13-Mar-18 10:11 PM
Arrived: 13-Mar-18 10:53 PM
Distance/Time
Traveled:
8nm/0:41
Distance/Time
To Go:
Arrived

Flight Plot

Page will automatically refresh every two minutes.


Map Options




Map Legend


Flown Route
Filed Route
Departure Airport
Arrival Airport
Navaid (VOR, NDB)
Fix

Horizontal Profiles

Position Reports

Time Latitude Longitude Heading Altitude Ground
Speed
13-Mar-18 21:59 34.211092 -119.094354 196 78ft 0kts
13-Mar-18 22:00 34.211091 -119.094354 196 78ft 0kts
13-Mar-18 22:01 34.211091 -119.094354 196 78ft 0kts
13-Mar-18 22:02 34.211091 -119.094354 196 78ft 0kts
13-Mar-18 22:03 34.211091 -119.094354 196 78ft 0kts
13-Mar-18 22:04 34.211090 -119.094354 196 78ft 0kts
13-Mar-18 22:05 34.211090 -119.094354 196 78ft 0kts
13-Mar-18 22:06 34.211090 -119.094354 196 78ft 0kts
13-Mar-18 22:07 34.211381 -119.093707 98 78ft 19kts
13-Mar-18 22:08 34.211152 -119.085897 86 78ft 27kts
13-Mar-18 22:09 34.213034 -119.084571 351 78ft 2kts
13-Mar-18 22:10 34.213837 -119.104191 270 470ft 82kts
13-Mar-18 22:11 34.219372 -119.129603 288 1354ft 78kts
13-Mar-18 22:12 34.225805 -119.154754 280 2142ft 79kts
13-Mar-18 22:13 34.231556 -119.180595 282 2860ft 81kts
13-Mar-18 22:14 34.222168 -119.194997 158 3520ft 80kts
13-Mar-18 22:15 34.199936 -119.185646 155 4083ft 86kts
13-Mar-18 22:16 34.170829 -119.173874 160 3954ft 117kts
13-Mar-18 22:17 34.154655 -119.143542 100 4083ft 102kts
13-Mar-18 22:18 34.148333 -119.111040 102 4380ft 99kts
13-Mar-18 22:19 34.141419 -119.081117 106 4824ft 87kts
13-Mar-18 22:20 34.133572 -119.051578 102 4991ft 98kts
13-Mar-18 22:21 34.124816 -119.019425 107 5072ft 103kts
13-Mar-18 22:22 34.117966 -118.986281 80 5115ft 94kts
13-Mar-18 22:23 34.122102 -118.951652 78 4967ft 106kts
13-Mar-18 22:24 34.127527 -118.917505 71 4981ft 103kts
13-Mar-18 22:25 34.134225 -118.883899 76 4977ft 103kts
13-Mar-18 22:26 34.153400 -118.861431 33 4977ft 103kts
13-Mar-18 22:27 34.177413 -118.842848 31 5001ft 100kts
13-Mar-18 22:28 34.199854 -118.821880 32 4952ft 104kts
13-Mar-18 22:29 34.223072 -118.802142 40 5037ft 96kts
13-Mar-18 22:30 34.246722 -118.783043 34 4938ft 105kts
13-Mar-18 22:31 34.270351 -118.763926 29 4893ft 108kts
13-Mar-18 22:32 34.293291 -118.744481 38 5017ft 102kts
13-Mar-18 22:33 34.316074 -118.723651 40 5009ft 103kts
13-Mar-18 22:34 34.338687 -118.702432 33 5023ft 103kts
13-Mar-18 22:35 34.363699 -118.685161 31 5021ft 104kts
13-Mar-18 22:36 34.386657 -118.664158 35 5053ft 101kts
13-Mar-18 22:37 34.411729 -118.645846 36 5031ft 106kts
13-Mar-18 22:38 34.437422 -118.626661 28 5021ft 111kts
13-Mar-18 22:39 34.463778 -118.606271 35 5000ft 112kts
13-Mar-18 22:40 34.489843 -118.586249 22 5005ft 111kts
13-Mar-18 22:41 34.507095 -118.561100 118 5010ft 108kts
13-Mar-18 22:42 34.482401 -118.538910 145 5002ft 112kts
13-Mar-18 22:43 34.457496 -118.516853 155 5043ft 110kts
13-Mar-18 22:44 34.427050 -118.511088 173 4978ft 112kts
13-Mar-18 22:45 34.396829 -118.507409 164 4772ft 108kts
13-Mar-18 22:46 34.366649 -118.505269 178 4338ft 109kts
13-Mar-18 22:47 34.336726 -118.502389 175 3815ft 105kts
13-Mar-18 22:48 34.307480 -118.499388 178 3265ft 110kts
13-Mar-18 22:49 34.277069 -118.496754 174 2447ft 108kts
13-Mar-18 22:50 34.247491 -118.493949 176 1711ft 107kts
13-Mar-18 22:51 34.219370 -118.491310 175 951ft 77kts
13-Mar-18 22:52 34.209582 -118.491098 267 805ft 0kts
13-Mar-18 22:53 34.207965 -118.491781 251 805ft 0kts
13-Mar-18 22:54 34.207965 -118.491781 251 805ft 0kts
13-Mar-18 22:55 34.207965 -118.491781 251 805ft 0kts
13-Mar-18 22:56 34.207965 -118.491781 251 805ft 0kts
13-Mar-18 22:57 34.207965 -118.491782 251 805ft 0kts
13-Mar-18 22:58 34.207965 -118.491782 251 805ft 0kts
13-Mar-18 22:59 34.207965 -118.491782 251 805ft 0kts
13-Mar-18 23:00 34.207965 -118.491783 251 805ft 0kts
13-Mar-18 23:01 34.207965 -118.491783 251 805ft 0kts
13-Mar-18 23:02 34.207965 -118.491783 251 805ft 0kts
13-Mar-18 23:03 34.207964 -118.491783 251 805ft 0kts
13-Mar-18 23:04 34.210905 -119.096681 180 81ft 0kts
13-Mar-18 23:05 34.226644 -119.050365 35 1905ft 599kts
13-Mar-18 23:06 34.334844 -119.028467 329 2477ft 352kts

Navigation Log

Ident Type
1. KCMA Airport
2. VNY Navaid
3. KVNY Airport